createdAt,value
2023-03-15T00:01:09.012Z,2.50
2023-03-15T00:03:37.510Z,3.83
2023-03-15T00:06:06.450Z,2.00
2023-03-15T00:08:34.653Z,1.73
2023-03-15T00:11:02.989Z,1.55
2023-03-15T00:13:31.311Z,1.88
2023-03-15T00:16:00.912Z,2.50
2023-03-15T00:18:30.458Z,3.80
2023-03-15T00:20:58.450Z,2.20
2023-03-15T00:23:26.569Z,2.20
2023-03-15T00:25:55.500Z,4.20
2023-03-15T00:28:23.467Z,6.07
2023-03-15T00:30:51.433Z,1.93
2023-03-15T00:33:19.469Z,2.30
2023-03-15T00:35:48.805Z,2.42
2023-03-15T00:38:16.733Z,3.17
2023-03-15T00:40:44.660Z,2.65
2023-03-15T00:43:17.901Z,4.38
2023-03-15T00:45:46.249Z,1.90
2023-03-15T00:48:14.260Z,2.53
2023-03-15T00:50:42.236Z,2.88
2023-03-15T00:53:12.111Z,2.55
2023-03-15T00:55:40.032Z,3.07
2023-03-15T00:58:07.980Z,2.60
2023-03-15T01:00:38.184Z,3.20
2023-03-15T01:03:06.285Z,2.30
2023-03-15T01:05:34.254Z,1.65
2023-03-15T01:08:03.264Z,4.45
2023-03-15T01:10:32.615Z,1.70
2023-03-15T01:13:00.587Z,2.53
2023-03-15T01:15:28.683Z,1.50
2023-03-15T01:17:57.452Z,2.07
2023-03-15T01:20:25.438Z,1.20
2023-03-15T01:22:53.670Z,1.20
2023-03-15T01:25:21.694Z,2.40
2023-03-15T01:27:50.976Z,2.13
2023-03-15T01:30:19.120Z,1.63
2023-03-15T01:32:47.138Z,1.20
2023-03-15T01:35:15.231Z,1.60
2023-03-15T01:37:43.181Z,3.20
2023-03-15T01:40:14.600Z,1.40
2023-03-15T01:43:17.610Z,4.50
2023-03-15T01:46:00.844Z,2.65
2023-03-15T01:48:33.635Z,2.95
2023-03-15T01:51:03.083Z,3.47
2023-03-15T01:53:33.208Z,1.90
2023-03-15T01:56:02.131Z,4.07
2023-03-15T01:58:31.747Z,3.70
2023-03-15T02:00:59.879Z,3.50
2023-03-15T02:03:33.712Z,1.90
2023-03-15T02:06:07.580Z,1.50
2023-03-15T02:08:40.552Z,2.13
2023-03-15T02:11:08.753Z,2.50
2023-03-15T02:13:38.130Z,2.47
2023-03-15T02:16:07.555Z,3.80
2023-03-15T02:18:36.727Z,3.80
2023-03-15T02:21:15.339Z,2.30
2023-03-15T02:23:45.170Z,2.13
2023-03-15T02:26:21.678Z,2.67
2023-03-15T02:28:51.640Z,3.40
2023-03-15T02:31:19.919Z,4.78
2023-03-15T02:33:50.634Z,4.60
2023-03-15T02:36:21.731Z,2.60
2023-03-15T02:38:50.560Z,2.33
2023-03-15T02:41:22.819Z,1.70
2023-03-15T02:43:55.289Z,2.88
2023-03-15T02:46:24.529Z,3.00
2023-03-15T02:48:54.205Z,2.70
2023-03-15T02:51:24.193Z,3.58
2023-03-15T02:53:52.365Z,2.42
2023-03-15T02:56:20.600Z,2.83
2023-03-15T02:58:49.111Z,4.70
2023-03-15T03:01:19.420Z,2.87
2023-03-15T03:03:48.474Z,3.60
2023-03-15T03:06:19.456Z,2.10
2023-03-15T03:08:47.753Z,1.95
2023-03-15T03:11:16.419Z,2.33
2023-03-15T03:13:44.581Z,1.33
2023-03-15T03:16:13.110Z,2.80
2023-03-15T03:18:42.547Z,2.08
2023-03-15T03:21:10.936Z,4.53
2023-03-15T03:23:38.871Z,2.00
2023-03-15T03:26:16.776Z,1.30
2023-03-15T03:28:46.495Z,2.20
2023-03-15T03:31:18.695Z,1.93
2023-03-15T03:33:48.297Z,1.20
2023-03-15T03:36:16.385Z,2.90
2023-03-15T03:38:46.038Z,3.63
2023-03-15T03:41:15.541Z,3.90
2023-03-15T03:43:43.720Z,3.25
2023-03-15T03:46:11.870Z,3.70
2023-03-15T03:48:39.843Z,3.78
2023-03-15T03:51:09.187Z,2.50
2023-03-15T03:53:37.171Z,3.40
2023-03-15T03:56:06.040Z,3.80
2023-03-15T03:58:33.992Z,4.65
2023-03-15T04:01:02.031Z,2.00
2023-03-15T04:03:29.989Z,2.58
2023-03-15T04:05:59.556Z,2.60
2023-03-15T04:08:28.932Z,3.90
2023-03-15T04:10:58.342Z,3.33
2023-03-15T04:13:26.901Z,2.80
2023-03-15T04:15:57.612Z,2.97
2023-03-15T04:18:26.182Z,5.45
2023-03-15T04:20:54.884Z,4.73
2023-03-15T04:23:24.297Z,3.63
2023-03-15T04:25:55.214Z,2.88
2023-03-15T04:28:23.819Z,3.30
2023-03-15T04:30:52.752Z,4.38
2023-03-15T04:33:24.503Z,2.90
2023-03-15T04:35:53.649Z,3.30
2023-03-15T04:38:26.532Z,2.67
2023-03-15T04:40:56.003Z,3.40
2023-03-15T04:43:24.733Z,3.35
2023-03-15T04:45:52.835Z,5.20
2023-03-15T04:48:20.822Z,2.75
2023-03-15T04:50:48.722Z,4.13
2023-03-15T04:53:16.696Z,3.50
2023-03-15T04:55:44.602Z,4.40
2023-03-15T04:58:13.928Z,6.00
2023-03-15T05:00:41.978Z,2.80
2023-03-15T05:03:09.958Z,2.55
2023-03-15T05:05:37.972Z,2.63
2023-03-15T05:08:06.318Z,2.63
2023-03-15T05:10:34.794Z,4.20
2023-03-15T05:13:02.758Z,4.10
2023-03-15T05:15:32.133Z,3.47
2023-03-15T05:18:00.200Z,2.53
2023-03-15T05:20:28.187Z,3.45
2023-03-15T05:22:56.122Z,2.70
2023-03-15T05:25:24.390Z,7.15
2023-03-15T05:27:52.900Z,4.68
2023-03-15T05:30:21.536Z,4.03
2023-03-15T05:32:51.590Z,2.90
2023-03-15T05:35:19.812Z,2.53
2023-03-15T05:37:47.806Z,5.35
2023-03-15T05:40:15.921Z,4.57
2023-03-15T05:42:43.843Z,3.40
2023-03-15T05:45:12.456Z,2.70
2023-03-15T05:47:40.463Z,4.53
2023-03-15T05:50:10.842Z,2.67
2023-03-15T05:52:38.794Z,4.45
2023-03-15T05:55:07.457Z,3.10
2023-03-15T05:57:35.406Z,2.30
2023-03-15T06:00:04.709Z,4.88
2023-03-15T06:02:32.739Z,2.85
2023-03-15T06:05:00.718Z,3.58
2023-03-15T06:07:30.068Z,3.50
2023-03-15T06:09:58.082Z,3.67
2023-03-15T06:12:26.059Z,3.00
2023-03-15T06:14:54.086Z,3.00
2023-03-15T06:17:22.080Z,3.47
2023-03-15T06:19:50.044Z,3.40
2023-03-15T06:22:20.499Z,5.22
2023-03-15T06:24:49.849Z,2.92
2023-03-15T06:27:21.920Z,4.63
2023-03-15T06:29:50.253Z,3.78
2023-03-15T06:32:18.553Z,3.25
2023-03-15T06:34:46.527Z,5.55
2023-03-15T06:37:22.797Z,5.25
2023-03-15T06:39:58.792Z,3.92
2023-03-15T06:42:26.800Z,5.00
2023-03-15T06:44:54.750Z,4.88
2023-03-15T06:47:22.866Z,4.22
2023-03-15T06:49:50.837Z,3.70
2023-03-15T06:52:19.288Z,3.13
2023-03-15T06:54:47.307Z,2.90
2023-03-15T06:57:16.787Z,6.05
2023-03-15T06:59:44.814Z,4.85
2023-03-15T07:02:15.974Z,2.92
2023-03-15T07:04:45.177Z,5.13
2023-03-15T07:07:13.826Z,2.78
2023-03-15T07:09:42.131Z,6.22
2023-03-15T07:12:11.743Z,3.22
2023-03-15T07:14:41.077Z,6.22
2023-03-15T07:17:09.224Z,6.57
2023-03-15T07:19:41.445Z,5.72
2023-03-15T07:22:14.926Z,5.38
2023-03-15T07:24:42.887Z,5.60
2023-03-15T07:27:15.685Z,5.18
2023-03-15T07:29:45.835Z,6.90
2023-03-15T07:32:13.837Z,5.70
2023-03-15T07:34:42.012Z,4.97
2023-03-15T07:37:10.358Z,6.00
2023-03-15T07:39:38.326Z,4.00
2023-03-15T07:42:07.272Z,3.88
2023-03-15T07:44:35.229Z,3.58
2023-03-15T07:47:04.817Z,4.75
2023-03-15T07:49:34.685Z,5.07
2023-03-15T07:52:03.567Z,4.43
2023-03-15T07:54:32.092Z,2.67
2023-03-15T07:57:00.153Z,5.28
2023-03-15T07:59:28.082Z,7.10
2023-03-15T08:01:56.380Z,4.60
2023-03-15T08:04:25.742Z,4.95
2023-03-15T08:06:53.672Z,5.20
2023-03-15T08:09:21.709Z,4.88
2023-03-15T08:11:49.764Z,5.20
2023-03-15T08:14:17.764Z,5.35
2023-03-15T08:16:45.750Z,8.18
2023-03-15T08:19:13.732Z,3.42
2023-03-15T08:21:45.436Z,6.18
2023-03-15T08:24:13.467Z,5.05
2023-03-15T08:26:43.266Z,5.13
2023-03-15T08:29:11.306Z,5.00
2023-03-15T08:31:39.715Z,6.07
2023-03-15T08:34:07.759Z,4.90
2023-03-15T08:36:36.012Z,6.20
2023-03-15T08:39:06.523Z,5.65
2023-03-15T08:41:34.638Z,5.45
2023-03-15T08:44:02.877Z,5.50
2023-03-15T08:46:30.990Z,5.25
2023-03-15T08:48:58.953Z,6.70
2023-03-15T08:51:27.139Z,8.45
2023-03-15T08:53:55.220Z,5.68
2023-03-15T08:56:24.536Z,8.23
2023-03-15T08:58:52.566Z,8.48
2023-03-15T09:01:20.510Z,7.28
2023-03-15T09:03:49.034Z,3.83
2023-03-15T09:06:17.116Z,5.85
2023-03-15T09:08:45.151Z,4.65
2023-03-15T09:11:13.676Z,5.45
2023-03-15T09:13:43.034Z,11.83
2023-03-15T09:16:11.006Z,6.03
2023-03-15T09:18:40.498Z,5.25
2023-03-15T09:21:08.582Z,8.90
2023-03-15T09:23:36.531Z,5.50
2023-03-15T09:26:04.481Z,7.63
2023-03-15T09:28:32.481Z,5.87
2023-03-15T09:31:06.260Z,5.07
2023-03-15T09:33:34.355Z,7.43
2023-03-15T09:36:02.374Z,5.33
2023-03-15T09:38:30.681Z,6.20
2023-03-15T09:41:00.331Z,5.25
2023-03-15T09:43:54.524Z,4.38
2023-03-15T09:46:31.262Z,4.45
2023-03-15T09:49:06.102Z,6.45
2023-03-15T09:51:40.598Z,4.40
2023-03-15T09:54:13.544Z,6.30
2023-03-15T09:56:46.954Z,4.10
2023-03-15T09:59:17.774Z,5.78
2023-03-15T10:01:48.637Z,5.88
2023-03-15T10:04:26.591Z,9.80
2023-03-15T10:06:57.165Z,5.78
2023-03-15T10:09:27.183Z,7.03
2023-03-15T10:12:04.278Z,7.63
2023-03-15T10:14:44.728Z,8.38
2023-03-15T10:17:16.543Z,7.68
2023-03-15T10:19:51.028Z,10.75
2023-03-15T10:22:27.083Z,6.07
2023-03-15T10:25:00.430Z,8.23
2023-03-15T10:27:35.507Z,5.78
2023-03-15T10:30:14.154Z,6.32
2023-03-15T10:32:45.922Z,2.78
2023-03-15T10:35:16.539Z,4.70
2023-03-15T10:37:45.423Z,7.43
2023-03-15T10:40:16.183Z,7.65
2023-03-15T10:42:45.479Z,4.88
2023-03-15T10:45:25.641Z,3.80
2023-03-15T10:48:00.585Z,9.27
2023-03-15T10:50:32.822Z,6.20
2023-03-15T10:53:03.576Z,7.17
2023-03-15T10:55:34.069Z,8.27
2023-03-15T10:58:19.592Z,4.70
2023-03-15T11:00:51.778Z,5.88
2023-03-15T11:03:22.718Z,3.92
2023-03-15T11:05:52.660Z,9.13
2023-03-15T11:08:22.745Z,5.30
2023-03-15T11:10:57.612Z,4.45
2023-03-15T11:13:27.162Z,7.22
2023-03-15T11:16:01.517Z,5.17
2023-03-15T11:18:35.504Z,5.55
2023-03-15T11:21:06.712Z,3.80
2023-03-15T11:23:37.914Z,8.18
2023-03-15T11:26:06.711Z,3.88
2023-03-15T11:28:37.720Z,4.55
2023-03-15T11:31:06.447Z,4.95
2023-03-15T11:33:42.555Z,4.55
2023-03-15T11:36:16.827Z,6.57
2023-03-15T11:38:46.323Z,4.20
2023-03-15T11:41:28.857Z,3.20
2023-03-15T11:44:05.906Z,2.85
2023-03-15T11:46:40.270Z,5.03
2023-03-15T11:49:17.891Z,4.80
2023-03-15T11:51:46.211Z,4.88
2023-03-15T11:54:16.574Z,3.70
2023-03-15T11:56:52.182Z,4.32
2023-03-15T11:59:22.364Z,6.55
2023-03-15T12:01:53.650Z,4.53
2023-03-15T12:04:42.175Z,4.13
2023-03-15T12:07:39.881Z,8.70
2023-03-15T12:10:31.875Z,5.80
2023-03-15T12:13:06.690Z,5.22
2023-03-15T12:15:46.827Z,3.28
2023-03-15T12:18:37.243Z,7.05
2023-03-15T12:21:33.275Z,3.70
2023-03-15T12:24:03.929Z,5.40
2023-03-15T12:26:45.971Z,7.47
2023-03-15T12:29:19.648Z,4.53
2023-03-15T12:31:55.556Z,4.35
2023-03-15T12:34:37.076Z,3.10
2023-03-15T12:37:09.831Z,2.22
2023-03-15T12:39:41.169Z,3.45
2023-03-15T12:42:15.109Z,6.00
2023-03-15T12:44:46.380Z,3.38
2023-03-15T12:47:14.364Z,6.35
2023-03-15T12:49:43.840Z,4.23
2023-03-15T12:52:39.763Z,3.80
2023-03-15T12:55:16.048Z,5.25
2023-03-15T12:57:50.128Z,3.58
2023-03-15T13:00:21.613Z,6.22
2023-03-15T13:02:51.859Z,2.95
2023-03-15T13:05:24.560Z,3.40
2023-03-15T13:07:59.421Z,6.22
2023-03-15T13:10:46.461Z,4.40
2023-03-15T13:13:25.607Z,4.63
2023-03-15T13:16:09.046Z,4.40
2023-03-15T13:18:48.198Z,5.45
2023-03-15T13:21:21.195Z,5.00
2023-03-15T13:23:53.017Z,6.10
2023-03-15T13:26:36.120Z,3.65
2023-03-15T13:29:14.252Z,6.30
2023-03-15T13:31:42.428Z,3.15
2023-03-15T13:34:16.136Z,3.50
2023-03-15T13:36:46.878Z,7.40
2023-03-15T13:39:23.368Z,3.60
2023-03-15T13:41:57.648Z,3.47
2023-03-15T13:44:26.406Z,1.83
2023-03-15T13:46:55.864Z,1.95
2023-03-15T13:49:24.578Z,3.15
2023-03-15T13:51:54.612Z,5.90
2023-03-15T13:54:27.698Z,4.15
2023-03-15T13:57:03.477Z,6.28
2023-03-15T13:59:35.918Z,4.03
2023-03-15T14:02:07.083Z,2.60
2023-03-15T14:04:38.815Z,5.35
2023-03-15T14:07:20.994Z,4.88
2023-03-15T14:09:50.371Z,2.70
2023-03-15T14:12:23.949Z,2.20
2023-03-15T14:14:53.783Z,3.90
2023-03-15T14:17:27.464Z,3.45
2023-03-15T14:19:57.091Z,3.22
2023-03-15T14:22:31.970Z,3.10
2023-03-15T14:25:01.327Z,2.38
2023-03-15T14:27:30.630Z,2.80
2023-03-15T14:30:00.487Z,5.03
2023-03-15T14:32:31.615Z,3.70
2023-03-15T14:35:05.219Z,2.40
2023-03-15T14:37:38.185Z,2.10
2023-03-15T14:40:21.985Z,4.50
2023-03-15T14:42:51.516Z,3.17
2023-03-15T14:45:22.131Z,4.33
2023-03-15T14:47:57.490Z,2.42
2023-03-15T14:50:28.613Z,2.55
2023-03-15T14:52:58.434Z,3.25
2023-03-15T14:55:33.490Z,2.47
2023-03-15T14:58:02.055Z,3.80
2023-03-15T15:00:30.254Z,5.18
2023-03-15T15:02:59.251Z,5.40
2023-03-15T15:05:29.138Z,3.90
2023-03-15T15:08:03.374Z,1.90
2023-03-15T15:10:34.792Z,2.30
2023-03-15T15:13:06.911Z,2.30
2023-03-15T15:15:53.551Z,2.60
2023-03-15T15:18:22.934Z,4.70
2023-03-15T15:20:54.231Z,2.80
2023-03-15T15:23:24.464Z,3.05
2023-03-15T15:25:56.676Z,6.10
2023-03-15T15:28:34.729Z,4.57
2023-03-15T15:31:03.837Z,2.30
2023-03-15T15:33:32.290Z,3.67
2023-03-15T15:36:00.428Z,3.83
2023-03-15T15:38:34.817Z,3.45
2023-03-15T15:41:04.220Z,2.47
2023-03-15T15:43:33.656Z,2.50
2023-03-15T15:46:02.123Z,2.50
2023-03-15T15:48:30.474Z,3.75
2023-03-15T15:50:59.032Z,2.80
2023-03-15T15:53:28.690Z,4.47
2023-03-15T15:55:58.018Z,3.95
2023-03-15T15:58:27.366Z,2.00
2023-03-15T16:00:55.362Z,2.10
2023-03-15T16:03:23.440Z,3.80
2023-03-15T16:05:51.893Z,1.98
2023-03-15T16:08:23.598Z,2.70
2023-03-15T16:10:51.906Z,2.45
2023-03-15T16:13:19.910Z,1.60
2023-03-15T16:15:49.341Z,3.40
2023-03-15T16:18:17.443Z,3.40
2023-03-15T16:20:45.479Z,2.40
2023-03-15T16:23:18.148Z,3.63
2023-03-15T16:25:49.287Z,1.75
2023-03-15T16:28:17.438Z,3.45
2023-03-15T16:30:46.952Z,5.22
2023-03-15T16:33:18.790Z,2.30
2023-03-15T16:35:50.031Z,6.32
2023-03-15T16:38:25.161Z,2.33
2023-03-15T16:40:54.017Z,4.20
2023-03-15T16:43:22.080Z,2.00
2023-03-15T16:45:50.266Z,2.25
2023-03-15T16:48:19.630Z,5.30
2023-03-15T16:50:48.259Z,2.50
2023-03-15T16:53:16.519Z,5.07
2023-03-15T16:55:44.494Z,2.20
2023-03-15T16:58:19.106Z,2.78
2023-03-15T17:00:48.490Z,2.70
2023-03-15T17:03:17.925Z,3.10
2023-03-15T17:05:48.775Z,3.45
2023-03-15T17:08:20.845Z,3.30
2023-03-15T17:10:49.357Z,3.42
2023-03-15T17:13:21.931Z,2.90
2023-03-15T17:15:50.030Z,4.63
2023-03-15T17:18:20.174Z,6.43
2023-03-15T17:20:51.104Z,4.13
2023-03-15T17:23:21.280Z,5.38
2023-03-15T17:25:50.037Z,5.32
2023-03-15T17:28:18.794Z,5.03
2023-03-15T17:30:47.579Z,8.43
2023-03-15T17:33:16.558Z,5.20
2023-03-15T17:35:48.564Z,5.07
2023-03-15T17:38:21.817Z,5.05
2023-03-15T17:40:50.552Z,5.65
2023-03-15T17:43:18.648Z,5.80
2023-03-15T17:45:46.780Z,4.27
2023-03-15T17:48:15.700Z,3.70
2023-03-15T17:50:45.031Z,5.72
2023-03-15T17:53:16.915Z,3.30
2023-03-15T17:55:47.942Z,3.53
2023-03-15T17:58:20.855Z,4.20
2023-03-15T18:00:50.981Z,4.25
2023-03-15T18:03:19.785Z,4.13
2023-03-15T18:05:48.536Z,5.97
2023-03-15T18:08:18.989Z,4.55
2023-03-15T18:10:50.692Z,3.47
2023-03-15T18:13:21.551Z,5.10
2023-03-15T18:15:50.235Z,4.07
2023-03-15T18:18:18.545Z,5.68
2023-03-15T18:20:47.223Z,8.48
2023-03-15T18:23:17.232Z,7.25
2023-03-15T18:25:45.604Z,4.72
2023-03-15T18:28:14.928Z,5.60
2023-03-15T18:30:44.167Z,5.57
2023-03-15T18:33:14.211Z,4.70
2023-03-15T18:35:42.263Z,3.92
2023-03-15T18:38:10.335Z,5.35
2023-03-15T18:40:38.375Z,6.63
2023-03-15T18:43:06.435Z,6.13
2023-03-15T18:45:36.928Z,6.90
2023-03-15T18:48:05.296Z,6.43
2023-03-15T18:50:34.492Z,5.78
2023-03-15T18:53:05.002Z,10.80
2023-03-15T18:55:33.765Z,5.82
2023-03-15T18:58:01.843Z,5.20
2023-03-15T19:00:32.616Z,5.60
2023-03-15T19:03:04.018Z,6.38
2023-03-15T19:05:34.340Z,6.45
2023-03-15T19:08:02.798Z,5.15
2023-03-15T19:10:30.840Z,7.50
2023-03-15T19:12:58.820Z,5.07
2023-03-15T19:15:26.856Z,4.88
2023-03-15T19:17:55.574Z,5.00
2023-03-15T19:20:25.190Z,4.90
2023-03-15T19:22:53.628Z,4.80
2023-03-15T19:25:23.407Z,5.20
2023-03-15T19:27:51.349Z,5.10
2023-03-15T19:30:22.262Z,5.10
2023-03-15T19:32:51.568Z,7.32
2023-03-15T19:35:21.618Z,4.90
2023-03-15T19:37:51.204Z,7.68
2023-03-15T19:40:20.282Z,6.05
2023-03-15T19:42:49.083Z,5.25
2023-03-15T19:45:18.326Z,6.13
2023-03-15T19:47:46.994Z,6.60
2023-03-15T19:50:16.074Z,6.93
2023-03-15T19:52:46.929Z,4.70
2023-03-15T19:55:18.181Z,5.55
2023-03-15T19:57:46.475Z,5.60
2023-03-15T20:00:16.520Z,5.05
2023-03-15T20:02:45.434Z,5.30
2023-03-15T20:05:15.288Z,6.55
2023-03-15T20:07:43.823Z,6.22
2023-03-15T20:10:13.110Z,5.50
2023-03-15T20:12:43.096Z,5.90
2023-03-15T20:15:13.759Z,5.53
2023-03-15T20:17:41.972Z,7.13
2023-03-15T20:20:13.740Z,6.80
2023-03-15T20:22:45.407Z,6.63
2023-03-15T20:25:14.093Z,8.15
2023-03-15T20:27:43.681Z,7.63
2023-03-15T20:30:14.581Z,6.88
2023-03-15T20:32:43.284Z,6.57
2023-03-15T20:35:12.079Z,5.77
2023-03-15T20:37:42.350Z,5.82
2023-03-15T20:40:12.633Z,6.93
2023-03-15T20:42:41.562Z,6.15
2023-03-15T20:45:13.573Z,5.47
2023-03-15T20:47:42.178Z,6.38
2023-03-15T20:50:11.904Z,5.95
2023-03-15T20:52:40.961Z,5.97
2023-03-15T20:55:09.863Z,9.40
2023-03-15T20:57:41.463Z,6.60
2023-03-15T21:00:18.451Z,6.60
2023-03-15T21:02:47.738Z,7.55
2023-03-15T21:05:16.410Z,9.60
2023-03-15T21:07:47.832Z,7.25
2023-03-15T21:10:16.445Z,6.78
2023-03-15T21:12:45.292Z,6.65
2023-03-15T21:15:15.399Z,6.05
2023-03-15T21:17:43.370Z,9.07
2023-03-15T21:20:15.304Z,8.05
2023-03-15T21:22:43.820Z,7.57
2023-03-15T21:25:13.431Z,11.00
2023-03-15T21:27:41.582Z,7.72
2023-03-15T21:30:11.427Z,7.47
2023-03-15T21:32:41.168Z,13.27
2023-03-15T21:35:10.106Z,9.10
2023-03-15T21:37:38.072Z,7.78
2023-03-15T21:40:07.712Z,7.15
2023-03-15T21:42:35.945Z,7.00
2023-03-15T21:45:06.575Z,7.53
2023-03-15T21:47:34.762Z,8.80
2023-03-15T21:50:04.429Z,9.27
2023-03-15T21:52:32.593Z,7.10
2023-03-15T21:55:01.089Z,6.63
2023-03-15T21:57:29.115Z,6.95
2023-03-15T21:59:57.183Z,9.48
2023-03-15T22:02:25.173Z,9.30
2023-03-15T22:04:53.200Z,9.00
2023-03-15T22:07:22.586Z,9.57
2023-03-15T22:09:53.169Z,6.15
2023-03-15T22:12:21.178Z,6.47
2023-03-15T22:14:56.897Z,7.70
2023-03-15T22:17:32.662Z,6.40
2023-03-15T22:20:00.890Z,7.22
2023-03-15T22:22:30.381Z,7.35
2023-03-15T22:24:58.384Z,9.85
2023-03-15T22:27:26.337Z,7.00
2023-03-15T22:29:54.371Z,7.75
2023-03-15T22:32:22.329Z,6.78
2023-03-15T22:34:50.378Z,6.80
2023-03-15T22:37:18.365Z,6.18
2023-03-15T22:39:48.014Z,7.38
2023-03-15T22:42:15.968Z,7.50
2023-03-15T22:44:44.027Z,8.00
2023-03-15T22:47:12.027Z,6.15
2023-03-15T22:49:40.150Z,7.35
2023-03-15T22:52:08.879Z,8.95
2023-03-15T22:54:36.881Z,7.73
2023-03-15T22:57:06.396Z,7.73
2023-03-15T22:59:34.519Z,6.35
2023-03-15T23:02:02.516Z,7.78
2023-03-15T23:04:30.889Z,7.63
2023-03-15T23:06:59.035Z,6.60
2023-03-15T23:09:27.101Z,6.63
2023-03-15T23:11:55.069Z,6.60
2023-03-15T23:14:24.635Z,8.30
2023-03-15T23:16:52.940Z,7.40
2023-03-15T23:19:22.314Z,6.85
2023-03-15T23:21:50.296Z,8.10
2023-03-15T23:24:19.794Z,6.72
2023-03-15T23:26:47.802Z,6.97
2023-03-15T23:29:16.591Z,6.30
2023-03-15T23:31:45.954Z,8.70
2023-03-15T23:34:14.035Z,7.00
2023-03-15T23:36:44.138Z,8.40
2023-03-15T23:39:13.254Z,6.90
2023-03-15T23:41:41.271Z,8.45
2023-03-15T23:44:09.465Z,6.20
2023-03-15T23:46:37.437Z,6.45
2023-03-15T23:49:06.812Z,8.57
2023-03-15T23:51:35.133Z,6.40
2023-03-15T23:54:03.668Z,8.47
2023-03-15T23:56:31.956Z,6.78
2023-03-15T23:58:59.979Z,7.15
